Flight Track Log - Related Links

Times and Time Zones

All times are in EDT time to prevent confusion due to time zone crossing. See the KAP550 flight status page for this flight to view local times or setup timezone preferences in your user account.

Time Position Orientation Groundspeed Altitude Reporting Facility
EDT Latitude Longitude Course Direction KTS MPH feet Rate Location/Type
Tue 05:20:27 PM 43.7758 -74.2775 160° South 157 181 9,500  Level Boston Center
Tue 05:21:27 PM 43.7261 -74.2531 160° South 171 197 9,500  Level Boston Center
Tue 05:22:27 PM 43.6764 -74.2314 163° South 184 212 9,500  Level Boston Center
Tue 05:23:27 PM 43.6289 -74.2128 164° South 184 212 9,500  Level Boston Center
Tue 05:24:09 PM 43.5956 -74.1975 162° South 187 215 9,500  Level Boston Center
Tue 05:24:27 PM 43.5792 -74.1856 152° Southeast 184 212 9,500  Level Boston Center
Tue 05:25:00 PM 44.7160 -74.7330 160° South  Level FlightAware Approximate
Tue 05:25:27 PM 43.5294 -74.1639 162° South 184 212 9,500  Level Boston Center
Tue 05:26:17 PM 43.4881 -74.1486 165° South 188 216 9,500 -273 Level Boston Center
Tue 05:27:17 PM 43.4364 -74.1214 159° South 197 227 9,000 -545 Descending Boston Center
Tue 05:28:18 PM 43.3825 -74.0969 162° South 203 234 8,400 -621 Descending Boston Center
Tue 05:29:13 PM 43.3347 -74.0758 162° South 204 235 7,800 -626 Descending Boston Center
Tue 05:30:13 PM 43.2831 -74.0514 161° South 197 227 7,200 -545 Descending Boston Center
Tue 05:31:14 PM 43.2333 -74.0303 163° South 188 216 6,700 -492 Descending Boston Center
Tue 05:32:15 PM 43.1836 -74.0061 160° South 185 213 6,200 -443 Descending Boston Center
Tue 05:33:16 PM 43.1339 -73.9822 161° South 190 219 5,800 -446 Descending Boston Center
Tue 05:34:16 PM 43.0781 -73.9553 161° South 190 219 5,300 -504 Descending Boston Center
Tue 05:35:27 PM 43.0222 -73.9253 159° South 187 215 4,700 -496 Descending Boston Center
Tue 05:36:17 PM 42.9831 -73.8989 154° Southeast 188 216 4,300 -541 Descending Boston Center
Tue 05:37:18 PM 42.9417 -73.8639 148° Southeast 185 213 3,700 -492 Descending Boston Center
Tue 05:38:19 PM 42.8964 -73.8261 149° Southeast 183 211 3,300 -545 Descending Boston Center
Tue 05:39:19 PM 42.8506 -73.8108 166° South 168 193 2,600 -942 Descending Boston Center
Tue 05:40:20 PM 42.8089 -73.8100 179° South 146 168 1,400 -934 Descending Boston Center
Tue 05:41:21 PM 42.7714 -73.8092 179° South 130 150 700 -689 Descending Boston Center
Tue 05:43:00 PM 42.7491 -73.8020 170° South  Level Estimated
Tue 05:50:00 PM 42.7491 -73.8020 170° South  Level Estimated
Tue 05:51:00 PM 42.7491 -73.8020 170° South  Level Estimated
Tue 05:52:00 PM 42.7491 -73.8020 170° South  Level Estimated

Login

Don't have an account? Register now (free) for customized features, flight alerts, and more!